sensor_id;sensor_type;location;lat;lon;timestamp;P1;durP1;ratioP1;P2;durP2;ratioP2
47167;SDS011;32931;47.778;17.806;2023-05-10T00:01:55;6.00;;;3.30;;
47167;SDS011;32931;47.778;17.806;2023-05-10T00:04:21;6.47;;;3.00;;
47167;SDS011;32931;47.778;17.806;2023-05-10T00:06:47;9.80;;;3.30;;
47167;SDS011;32931;47.778;17.806;2023-05-10T00:09:13;6.88;;;2.83;;
47167;SDS011;32931;47.778;17.806;2023-05-10T00:11:40;16.80;;;3.25;;
47167;SDS011;32931;47.778;17.806;2023-05-10T00:14:06;7.85;;;3.58;;
47167;SDS011;32931;47.778;17.806;2023-05-10T00:16:32;8.27;;;3.50;;
47167;SDS011;32931;47.778;17.806;2023-05-10T00:18:58;9.52;;;3.33;;
47167;SDS011;32931;47.778;17.806;2023-05-10T00:21:24;9.38;;;3.60;;
47167;SDS011;32931;47.778;17.806;2023-05-10T00:23:50;8.55;;;3.10;;
47167;SDS011;32931;47.778;17.806;2023-05-10T00:26:16;10.10;;;3.42;;
47167;SDS011;32931;47.778;17.806;2023-05-10T00:28:42;9.20;;;3.70;;
47167;SDS011;32931;47.778;17.806;2023-05-10T00:31:09;6.22;;;3.30;;
47167;SDS011;32931;47.778;17.806;2023-05-10T00:33:35;5.55;;;3.33;;
47167;SDS011;32931;47.778;17.806;2023-05-10T00:36:01;7.78;;;3.83;;
47167;SDS011;32931;47.778;17.806;2023-05-10T00:38:27;11.43;;;3.50;;
47167;SDS011;32931;47.778;17.806;2023-05-10T00:40:53;9.98;;;3.20;;
47167;SDS011;32931;47.778;17.806;2023-05-10T00:43:20;9.15;;;3.85;;
47167;SDS011;32931;47.778;17.806;2023-05-10T00:45:46;6.85;;;3.60;;
47167;SDS011;32931;47.778;17.806;2023-05-10T00:48:12;7.88;;;3.83;;
47167;SDS011;32931;47.778;17.806;2023-05-10T00:50:39;6.45;;;3.42;;
47167;SDS011;32931;47.778;17.806;2023-05-10T00:53:05;13.30;;;3.50;;
47167;SDS011;32931;47.778;17.806;2023-05-10T00:55:31;8.38;;;3.40;;
47167;SDS011;32931;47.778;17.806;2023-05-10T00:57:58;9.02;;;3.55;;
47167;SDS011;32931;47.778;17.806;2023-05-10T01:00:24;4.93;;;3.30;;
47167;SDS011;32931;47.778;17.806;2023-05-10T01:02:52;6.63;;;3.40;;
47167;SDS011;32931;47.778;17.806;2023-05-10T01:05:19;10.05;;;3.25;;
47167;SDS011;32931;47.778;17.806;2023-05-10T01:07:45;6.95;;;3.38;;
47167;SDS011;32931;47.778;17.806;2023-05-10T01:10:11;9.65;;;3.42;;
47167;SDS011;32931;47.778;17.806;2023-05-10T01:12:39;5.85;;;3.10;;
47167;SDS011;32931;47.778;17.806;2023-05-10T01:15:08;4.55;;;3.35;;
47167;SDS011;32931;47.778;17.806;2023-05-10T01:17:37;11.30;;;3.60;;
47167;SDS011;32931;47.778;17.806;2023-05-10T01:20:05;6.15;;;3.28;;
47167;SDS011;32931;47.778;17.806;2023-05-10T01:22:44;6.50;;;3.20;;
47167;SDS011;32931;47.778;17.806;2023-05-10T01:33:39;5.20;;;3.67;;
47167;SDS011;32931;47.778;17.806;2023-05-10T01:36:39;6.60;;;4.00;;
47167;SDS011;32931;47.778;17.806;2023-05-10T01:39:58;5.75;;;3.90;;
47167;SDS011;32931;47.778;17.806;2023-05-10T01:42:23;11.25;;;4.47;;
47167;SDS011;32931;47.778;17.806;2023-05-10T01:45:04;7.95;;;4.75;;
47167;SDS011;32931;47.778;17.806;2023-05-10T01:47:42;8.52;;;4.70;;
47167;SDS011;32931;47.778;17.806;2023-05-10T01:50:10;7.03;;;4.53;;
47167;SDS011;32931;47.778;17.806;2023-05-10T01:52:42;12.05;;;4.57;;
47167;SDS011;32931;47.778;17.806;2023-05-10T01:55:14;13.38;;;4.70;;
47167;SDS011;32931;47.778;17.806;2023-05-10T01:57:43;11.90;;;4.85;;
47167;SDS011;32931;47.778;17.806;2023-05-10T02:00:11;9.80;;;4.63;;
47167;SDS011;32931;47.778;17.806;2023-05-10T02:02:44;8.48;;;4.90;;
47167;SDS011;32931;47.778;17.806;2023-05-10T02:05:12;7.90;;;4.88;;
47167;SDS011;32931;47.778;17.806;2023-05-10T02:07:40;7.72;;;5.28;;
47167;SDS011;32931;47.778;17.806;2023-05-10T02:10:07;7.60;;;4.95;;
47167;SDS011;32931;47.778;17.806;2023-05-10T02:12:36;9.23;;;5.07;;
47167;SDS011;32931;47.778;17.806;2023-05-10T02:15:06;11.65;;;5.68;;
47167;SDS011;32931;47.778;17.806;2023-05-10T02:17:34;10.10;;;5.80;;
47167;SDS011;32931;47.778;17.806;2023-05-10T02:20:03;10.32;;;5.38;;
47167;SDS011;32931;47.778;17.806;2023-05-10T02:22:31;14.55;;;5.53;;
47167;SDS011;32931;47.778;17.806;2023-05-10T02:25:00;12.40;;;6.10;;
47167;SDS011;32931;47.778;17.806;2023-05-10T02:27:28;13.65;;;6.22;;
47167;SDS011;32931;47.778;17.806;2023-05-10T02:29:55;11.27;;;6.10;;
47167;SDS011;32931;47.778;17.806;2023-05-10T02:32:24;8.70;;;6.10;;
47167;SDS011;32931;47.778;17.806;2023-05-10T02:34:52;9.05;;;6.47;;
47167;SDS011;32931;47.778;17.806;2023-05-10T02:37:20;14.48;;;6.45;;
47167;SDS011;32931;47.778;17.806;2023-05-10T02:39:47;13.07;;;6.65;;
47167;SDS011;32931;47.778;17.806;2023-05-10T02:42:18;12.98;;;6.75;;
47167;SDS011;32931;47.778;17.806;2023-05-10T02:44:48;13.40;;;6.25;;
47167;SDS011;32931;47.778;17.806;2023-05-10T02:47:18;11.90;;;6.45;;
47167;SDS011;32931;47.778;17.806;2023-05-10T02:49:45;10.85;;;6.90;;
47167;SDS011;32931;47.778;17.806;2023-05-10T02:52:11;11.50;;;6.03;;
47167;SDS011;32931;47.778;17.806;2023-05-10T02:54:45;11.40;;;6.68;;
47167;SDS011;32931;47.778;17.806;2023-05-10T02:59:43;9.38;;;6.30;;
47167;SDS011;32931;47.778;17.806;2023-05-10T03:02:12;10.45;;;6.60;;
47167;SDS011;32931;47.778;17.806;2023-05-10T03:04:38;11.27;;;7.10;;
47167;SDS011;32931;47.778;17.806;2023-05-10T03:07:04;8.18;;;6.05;;
47167;SDS011;32931;47.778;17.806;2023-05-10T03:09:31;10.32;;;6.10;;
47167;SDS011;32931;47.778;17.806;2023-05-10T03:12:04;17.73;;;6.07;;
47167;SDS011;32931;47.778;17.806;2023-05-10T03:20:25;8.77;;;5.63;;
47167;SDS011;32931;47.778;17.806;2023-05-10T03:22:55;12.02;;;5.53;;
47167;SDS011;32931;47.778;17.806;2023-05-10T03:25:47;7.90;;;5.32;;
47167;SDS011;32931;47.778;17.806;2023-05-10T03:28:14;12.55;;;5.57;;
47167;SDS011;32931;47.778;17.806;2023-05-10T03:30:42;8.18;;;4.90;;
47167;SDS011;32931;47.778;17.806;2023-05-10T03:33:09;10.43;;;5.40;;
47167;SDS011;32931;47.778;17.806;2023-05-10T03:35:36;10.27;;;4.82;;
47167;SDS011;32931;47.778;17.806;2023-05-10T03:38:02;9.80;;;5.28;;
47167;SDS011;32931;47.778;17.806;2023-05-10T03:40:28;7.43;;;4.63;;
47167;SDS011;32931;47.778;17.806;2023-05-10T03:42:57;9.68;;;4.90;;
47167;SDS011;32931;47.778;17.806;2023-05-10T03:45:23;8.73;;;4.68;;
47167;SDS011;32931;47.778;17.806;2023-05-10T03:47:49;8.65;;;4.63;;
47167;SDS011;32931;47.778;17.806;2023-05-10T03:50:16;8.60;;;4.78;;
47167;SDS011;32931;47.778;17.806;2023-05-10T03:52:42;6.10;;;4.30;;
47167;SDS011;32931;47.778;17.806;2023-05-10T03:55:09;9.18;;;4.38;;
47167;SDS011;32931;47.778;17.806;2023-05-10T03:57:35;6.07;;;4.35;;
47167;SDS011;32931;47.778;17.806;2023-05-10T04:00:01;7.80;;;4.93;;
47167;SDS011;32931;47.778;17.806;2023-05-10T04:02:28;7.22;;;4.13;;
47167;SDS011;32931;47.778;17.806;2023-05-10T04:04:55;8.40;;;4.50;;
47167;SDS011;32931;47.778;17.806;2023-05-10T04:07:22;8.10;;;4.53;;
47167;SDS011;32931;47.778;17.806;2023-05-10T04:09:48;13.18;;;4.97;;
47167;SDS011;32931;47.778;17.806;2023-05-10T04:12:14;8.82;;;4.85;;
47167;SDS011;32931;47.778;17.806;2023-05-10T04:14:40;8.65;;;5.07;;
47167;SDS011;32931;47.778;17.806;2023-05-10T04:17:06;10.98;;;5.25;;
47167;SDS011;32931;47.778;17.806;2023-05-10T04:19:33;12.98;;;5.50;;
47167;SDS011;32931;47.778;17.806;2023-05-10T04:21:59;10.45;;;4.95;;
47167;SDS011;32931;47.778;17.806;2023-05-10T04:24:25;12.73;;;4.95;;
47167;SDS011;32931;47.778;17.806;2023-05-10T04:26:51;10.68;;;4.88;;
47167;SDS011;32931;47.778;17.806;2023-05-10T04:29:19;8.75;;;5.15;;
47167;SDS011;32931;47.778;17.806;2023-05-10T04:31:45;10.00;;;5.10;;
47167;SDS011;32931;47.778;17.806;2023-05-10T04:34:12;10.38;;;5.35;;
47167;SDS011;32931;47.778;17.806;2023-05-10T04:36:38;10.05;;;5.35;;
47167;SDS011;32931;47.778;17.806;2023-05-10T04:39:04;14.93;;;6.00;;
47167;SDS011;32931;47.778;17.806;2023-05-10T04:41:30;10.95;;;5.63;;
47167;SDS011;32931;47.778;17.806;2023-05-10T04:43:56;14.18;;;5.95;;
47167;SDS011;32931;47.778;17.806;2023-05-10T04:46:23;11.80;;;6.05;;
47167;SDS011;32931;47.778;17.806;2023-05-10T04:48:49;8.93;;;6.03;;
47167;SDS011;32931;47.778;17.806;2023-05-10T04:51:15;10.13;;;6.35;;
47167;SDS011;32931;47.778;17.806;2023-05-10T04:53:41;7.13;;;5.85;;
47167;SDS011;32931;47.778;17.806;2023-05-10T04:56:07;8.50;;;5.72;;
47167;SDS011;32931;47.778;17.806;2023-05-10T04:58:33;10.02;;;6.32;;
47167;SDS011;32931;47.778;17.806;2023-05-10T05:01:06;11.98;;;6.30;;
47167;SDS011;32931;47.778;17.806;2023-05-10T05:03:34;10.45;;;6.22;;
47167;SDS011;32931;47.778;17.806;2023-05-10T05:06:01;10.95;;;6.80;;
47167;SDS011;32931;47.778;17.806;2023-05-10T05:08:27;11.27;;;6.93;;
47167;SDS011;32931;47.778;17.806;2023-05-10T05:10:53;12.27;;;6.68;;
47167;SDS011;32931;47.778;17.806;2023-05-10T05:13:20;12.48;;;6.45;;
47167;SDS011;32931;47.778;17.806;2023-05-10T05:15:46;9.40;;;6.53;;
47167;SDS011;32931;47.778;17.806;2023-05-10T05:18:12;11.23;;;7.15;;
47167;SDS011;32931;47.778;17.806;2023-05-10T05:20:38;15.98;;;7.07;;
47167;SDS011;32931;47.778;17.806;2023-05-10T05:23:04;8.52;;;7.10;;
47167;SDS011;32931;47.778;17.806;2023-05-10T05:25:30;14.23;;;7.00;;
47167;SDS011;32931;47.778;17.806;2023-05-10T05:27:57;9.88;;;7.35;;
47167;SDS011;32931;47.778;17.806;2023-05-10T05:30:23;12.18;;;7.45;;
47167;SDS011;32931;47.778;17.806;2023-05-10T05:32:49;16.85;;;7.80;;
47167;SDS011;32931;47.778;17.806;2023-05-10T05:35:15;15.20;;;8.02;;
47167;SDS011;32931;47.778;17.806;2023-05-10T05:37:41;12.00;;;8.43;;
47167;SDS011;32931;47.778;17.806;2023-05-10T05:40:08;10.48;;;7.45;;
47167;SDS011;32931;47.778;17.806;2023-05-10T05:42:37;13.40;;;7.72;;
47167;SDS011;32931;47.778;17.806;2023-05-10T05:45:04;17.17;;;7.72;;
47167;SDS011;32931;47.778;17.806;2023-05-10T05:47:30;12.23;;;7.78;;
47167;SDS011;32931;47.778;17.806;2023-05-10T05:49:57;11.20;;;8.15;;
47167;SDS011;32931;47.778;17.806;2023-05-10T05:52:23;11.13;;;6.95;;
47167;SDS011;32931;47.778;17.806;2023-05-10T05:54:49;11.40;;;7.50;;
47167;SDS011;32931;47.778;17.806;2023-05-10T05:57:15;17.08;;;6.75;;
47167;SDS011;32931;47.778;17.806;2023-05-10T05:59:41;10.82;;;6.95;;
47167;SDS011;32931;47.778;17.806;2023-05-10T06:02:09;14.68;;;7.30;;
47167;SDS011;32931;47.778;17.806;2023-05-10T06:04:35;8.55;;;6.78;;
47167;SDS011;32931;47.778;17.806;2023-05-10T06:07:02;14.82;;;7.07;;
47167;SDS011;32931;47.778;17.806;2023-05-10T06:09:28;14.05;;;6.90;;
47167;SDS011;32931;47.778;17.806;2023-05-10T06:11:54;11.57;;;6.75;;
47167;SDS011;32931;47.778;17.806;2023-05-10T06:14:20;13.65;;;7.60;;
47167;SDS011;32931;47.778;17.806;2023-05-10T06:16:47;13.70;;;7.45;;
47167;SDS011;32931;47.778;17.806;2023-05-10T06:19:13;10.57;;;6.97;;
47167;SDS011;32931;47.778;17.806;2023-05-10T06:21:39;11.88;;;6.97;;
47167;SDS011;32931;47.778;17.806;2023-05-10T06:24:05;13.38;;;7.05;;
47167;SDS011;32931;47.778;17.806;2023-05-10T06:26:32;9.45;;;6.65;;
47167;SDS011;32931;47.778;17.806;2023-05-10T06:28:59;8.50;;;6.63;;
47167;SDS011;32931;47.778;17.806;2023-05-10T06:31:25;12.63;;;6.57;;
47167;SDS011;32931;47.778;17.806;2023-05-10T06:33:51;11.13;;;6.40;;
47167;SDS011;32931;47.778;17.806;2023-05-10T06:36:17;11.85;;;6.60;;
47167;SDS011;32931;47.778;17.806;2023-05-10T06:38:43;10.52;;;7.13;;
47167;SDS011;32931;47.778;17.806;2023-05-10T06:41:09;9.82;;;6.40;;
47167;SDS011;32931;47.778;17.806;2023-05-10T06:43:36;8.73;;;6.90;;
47167;SDS011;32931;47.778;17.806;2023-05-10T06:46:05;15.40;;;6.40;;
47167;SDS011;32931;47.778;17.806;2023-05-10T06:48:32;12.43;;;5.43;;
47167;SDS011;32931;47.778;17.806;2023-05-10T06:50:58;17.13;;;5.80;;
47167;SDS011;32931;47.778;17.806;2023-05-10T06:53:24;9.93;;;5.85;;
47167;SDS011;32931;47.778;17.806;2023-05-10T06:55:50;10.40;;;5.45;;
47167;SDS011;32931;47.778;17.806;2023-05-10T06:58:16;13.27;;;5.30;;
47167;SDS011;32931;47.778;17.806;2023-05-10T07:00:43;10.57;;;5.28;;
47167;SDS011;32931;47.778;17.806;2023-05-10T07:03:10;9.48;;;5.03;;
47167;SDS011;32931;47.778;17.806;2023-05-10T07:05:36;14.02;;;5.20;;
47167;SDS011;32931;47.778;17.806;2023-05-10T07:08:03;14.35;;;4.43;;
47167;SDS011;32931;47.778;17.806;2023-05-10T07:10:29;13.93;;;4.68;;
47167;SDS011;32931;47.778;17.806;2023-05-10T07:12:55;7.75;;;5.13;;
47167;SDS011;32931;47.778;17.806;2023-05-10T07:15:21;9.98;;;5.55;;
47167;SDS011;32931;47.778;17.806;2023-05-10T07:17:48;21.98;;;4.68;;
47167;SDS011;32931;47.778;17.806;2023-05-10T07:20:14;11.18;;;5.60;;
47167;SDS011;32931;47.778;17.806;2023-05-10T07:22:40;7.65;;;5.28;;
47167;SDS011;32931;47.778;17.806;2023-05-10T07:25:06;9.63;;;5.13;;
47167;SDS011;32931;47.778;17.806;2023-05-10T07:27:33;12.65;;;5.97;;
47167;SDS011;32931;47.778;17.806;2023-05-10T07:29:59;18.52;;;5.85;;
47167;SDS011;32931;47.778;17.806;2023-05-10T07:32:25;9.05;;;4.90;;
47167;SDS011;32931;47.778;17.806;2023-05-10T07:34:52;8.85;;;5.20;;
47167;SDS011;32931;47.778;17.806;2023-05-10T07:37:18;12.07;;;5.43;;
47167;SDS011;32931;47.778;17.806;2023-05-10T07:39:44;8.77;;;5.30;;
47167;SDS011;32931;47.778;17.806;2023-05-10T07:42:10;12.50;;;5.28;;
47167;SDS011;32931;47.778;17.806;2023-05-10T07:44:36;10.93;;;4.68;;
47167;SDS011;32931;47.778;17.806;2023-05-10T07:47:02;11.90;;;4.47;;
47167;SDS011;32931;47.778;17.806;2023-05-10T07:49:28;11.40;;;4.80;;
47167;SDS011;32931;47.778;17.806;2023-05-10T07:51:55;12.52;;;5.07;;
47167;SDS011;32931;47.778;17.806;2023-05-10T07:54:21;7.80;;;5.00;;
47167;SDS011;32931;47.778;17.806;2023-05-10T07:56:47;21.67;;;5.00;;
47167;SDS011;32931;47.778;17.806;2023-05-10T07:59:17;9.20;;;5.00;;
47167;SDS011;32931;47.778;17.806;2023-05-10T08:01:43;11.18;;;5.15;;
47167;SDS011;32931;47.778;17.806;2023-05-10T08:04:10;10.98;;;4.72;;
47167;SDS011;32931;47.778;17.806;2023-05-10T08:06:37;12.15;;;4.50;;
47167;SDS011;32931;47.778;17.806;2023-05-10T08:09:03;14.82;;;5.38;;
47167;SDS011;32931;47.778;17.806;2023-05-10T08:11:29;19.05;;;4.63;;
47167;SDS011;32931;47.778;17.806;2023-05-10T08:13:55;9.73;;;4.22;;
47167;SDS011;32931;47.778;17.806;2023-05-10T08:16:22;13.07;;;5.07;;
47167;SDS011;32931;47.778;17.806;2023-05-10T08:18:48;9.02;;;4.70;;
47167;SDS011;32931;47.778;17.806;2023-05-10T08:21:16;11.27;;;4.60;;
47167;SDS011;32931;47.778;17.806;2023-05-10T08:23:42;8.82;;;4.22;;
47167;SDS011;32931;47.778;17.806;2023-05-10T08:26:11;10.68;;;4.18;;
47167;SDS011;32931;47.778;17.806;2023-05-10T08:28:37;8.07;;;3.78;;
47167;SDS011;32931;47.778;17.806;2023-05-10T08:31:04;9.75;;;3.63;;
47167;SDS011;32931;47.778;17.806;2023-05-10T08:33:30;6.20;;;3.35;;
47167;SDS011;32931;47.778;17.806;2023-05-10T08:35:56;7.57;;;3.40;;
47167;SDS011;32931;47.778;17.806;2023-05-10T08:38:23;8.57;;;3.80;;
47167;SDS011;32931;47.778;17.806;2023-05-10T08:40:49;12.82;;;3.63;;
47167;SDS011;32931;47.778;17.806;2023-05-10T08:43:21;10.73;;;3.83;;
47167;SDS011;32931;47.778;17.806;2023-05-10T08:45:53;5.88;;;3.55;;
47167;SDS011;32931;47.778;17.806;2023-05-10T08:48:21;8.52;;;3.83;;
47167;SDS011;32931;47.778;17.806;2023-05-10T08:50:49;9.48;;;3.70;;
47167;SDS011;32931;47.778;17.806;2023-05-10T08:53:20;13.43;;;3.60;;
47167;SDS011;32931;47.778;17.806;2023-05-10T08:55:49;5.50;;;3.70;;
47167;SDS011;32931;47.778;17.806;2023-05-10T08:58:16;10.98;;;3.60;;
47167;SDS011;32931;47.778;17.806;2023-05-10T09:00:42;8.43;;;3.67;;
47167;SDS011;32931;47.778;17.806;2023-05-10T09:03:09;12.63;;;3.40;;
47167;SDS011;32931;47.778;17.806;2023-05-10T09:05:37;6.93;;;3.38;;
47167;SDS011;32931;47.778;17.806;2023-05-10T09:08:03;11.25;;;3.67;;
47167;SDS011;32931;47.778;17.806;2023-05-10T09:10:30;11.40;;;3.90;;
47167;SDS011;32931;47.778;17.806;2023-05-10T09:12:57;12.90;;;3.17;;
47167;SDS011;32931;47.778;17.806;2023-05-10T09:15:23;12.65;;;3.08;;
47167;SDS011;32931;47.778;17.806;2023-05-10T09:17:50;8.45;;;3.30;;
47167;SDS011;32931;47.778;17.806;2023-05-10T09:20:16;47.17;;;5.55;;
47167;SDS011;32931;47.778;17.806;2023-05-10T09:22:45;8.73;;;3.00;;
47167;SDS011;32931;47.778;17.806;2023-05-10T09:25:12;13.13;;;3.30;;
47167;SDS011;32931;47.778;17.806;2023-05-10T09:27:39;11.82;;;3.17;;
47167;SDS011;32931;47.778;17.806;2023-05-10T09:30:07;17.30;;;3.53;;
47167;SDS011;32931;47.778;17.806;2023-05-10T09:35:10;7.78;;;3.15;;
47167;SDS011;32931;47.778;17.806;2023-05-10T09:37:38;10.70;;;3.40;;
47167;SDS011;32931;47.778;17.806;2023-05-10T09:40:12;9.55;;;2.90;;
47167;SDS011;32931;47.778;17.806;2023-05-10T09:42:42;11.85;;;2.97;;
47167;SDS011;32931;47.778;17.806;2023-05-10T09:45:18;8.88;;;2.80;;
47167;SDS011;32931;47.778;17.806;2023-05-10T09:47:44;9.18;;;2.80;;
47167;SDS011;32931;47.778;17.806;2023-05-10T09:50:10;9.13;;;3.35;;
47167;SDS011;32931;47.778;17.806;2023-05-10T09:52:47;4.53;;;2.65;;
47167;SDS011;32931;47.778;17.806;2023-05-10T09:55:41;13.70;;;3.08;;
47167;SDS011;32931;47.778;17.806;2023-05-10T09:58:14;7.38;;;2.33;;
47167;SDS011;32931;47.778;17.806;2023-05-10T10:00:44;12.93;;;2.20;;
47167;SDS011;32931;47.778;17.806;2023-05-10T10:03:13;11.85;;;2.60;;
47167;SDS011;32931;47.778;17.806;2023-05-10T10:05:41;13.77;;;2.60;;
47167;SDS011;32931;47.778;17.806;2023-05-10T10:08:09;13.43;;;2.97;;
47167;SDS011;32931;47.778;17.806;2023-05-10T10:10:35;9.35;;;2.33;;
47167;SDS011;32931;47.778;17.806;2023-05-10T10:13:02;17.75;;;2.70;;
47167;SDS011;32931;47.778;17.806;2023-05-10T10:15:28;6.43;;;2.65;;
47167;SDS011;32931;47.778;17.806;2023-05-10T10:17:54;8.43;;;2.30;;
47167;SDS011;32931;47.778;17.806;2023-05-10T10:20:21;13.05;;;2.63;;
47167;SDS011;32931;47.778;17.806;2023-05-10T10:22:49;11.30;;;2.55;;
47167;SDS011;32931;47.778;17.806;2023-05-10T10:25:16;4.22;;;2.40;;
47167;SDS011;32931;47.778;17.806;2023-05-10T10:36:06;4.13;;;2.38;;
47167;SDS011;32931;47.778;17.806;2023-05-10T10:41:30;6.32;;;2.00;;
47167;SDS011;32931;47.778;17.806;2023-05-10T10:52:13;5.45;;;2.35;;
47167;SDS011;32931;47.778;17.806;2023-05-10T10:55:06;6.37;;;2.00;;
47167;SDS011;32931;47.778;17.806;2023-05-10T10:57:42;4.55;;;1.92;;
47167;SDS011;32931;47.778;17.806;2023-05-10T11:02:47;6.22;;;2.20;;
47167;SDS011;32931;47.778;17.806;2023-05-10T11:11:06;6.63;;;2.20;;
47167;SDS011;32931;47.778;17.806;2023-05-10T11:13:37;6.97;;;2.40;;
47167;SDS011;32931;47.778;17.806;2023-05-10T11:18:38;6.05;;;2.38;;
47167;SDS011;32931;47.778;17.806;2023-05-10T11:21:05;13.23;;;2.53;;
47167;SDS011;32931;47.778;17.806;2023-05-10T11:26:09;10.02;;;2.03;;
47167;SDS011;32931;47.778;17.806;2023-05-10T11:28:43;5.72;;;2.08;;
47167;SDS011;32931;47.778;17.806;2023-05-10T11:31:16;4.75;;;1.95;;
47167;SDS011;32931;47.778;17.806;2023-05-10T11:36:10;10.60;;;2.10;;
47167;SDS011;32931;47.778;17.806;2023-05-10T11:38:37;7.40;;;1.90;;
47167;SDS011;32931;47.778;17.806;2023-05-10T11:41:04;5.80;;;1.45;;
47167;SDS011;32931;47.778;17.806;2023-05-10T11:43:30;5.35;;;1.73;;
47167;SDS011;32931;47.778;17.806;2023-05-10T11:45:56;6.60;;;1.48;;
47167;SDS011;32931;47.778;17.806;2023-05-10T11:48:22;5.70;;;1.65;;
47167;SDS011;32931;47.778;17.806;2023-05-10T11:50:49;15.65;;;1.60;;
47167;SDS011;32931;47.778;17.806;2023-05-10T11:53:16;8.57;;;2.00;;
47167;SDS011;32931;47.778;17.806;2023-05-10T11:55:42;5.80;;;1.88;;
47167;SDS011;32931;47.778;17.806;2023-05-10T11:58:08;2.60;;;1.50;;
47167;SDS011;32931;47.778;17.806;2023-05-10T12:00:34;3.72;;;1.42;;
47167;SDS011;32931;47.778;17.806;2023-05-10T12:03:00;8.38;;;1.42;;
47167;SDS011;32931;47.778;17.806;2023-05-10T12:05:27;5.47;;;1.48;;
47167;SDS011;32931;47.778;17.806;2023-05-10T12:08:10;95.80;;;4.55;;
47167;SDS011;32931;47.778;17.806;2023-05-10T12:13:10;6.30;;;1.95;;
47167;SDS011;32931;47.778;17.806;2023-05-10T12:15:38;1.92;;;1.20;;
47167;SDS011;32931;47.778;17.806;2023-05-10T12:18:05;9.68;;;1.38;;
47167;SDS011;32931;47.778;17.806;2023-05-10T12:20:33;4.30;;;1.38;;
47167;SDS011;32931;47.778;17.806;2023-05-10T12:22:59;5.47;;;1.58;;
47167;SDS011;32931;47.778;17.806;2023-05-10T12:25:30;7.93;;;1.65;;
47167;SDS011;32931;47.778;17.806;2023-05-10T12:27:58;5.78;;;1.92;;
47167;SDS011;32931;47.778;17.806;2023-05-10T12:30:29;4.28;;;1.70;;
47167;SDS011;32931;47.778;17.806;2023-05-10T12:33:07;7.53;;;1.67;;
47167;SDS011;32931;47.778;17.806;2023-05-10T12:35:45;5.78;;;1.52;;
47167;SDS011;32931;47.778;17.806;2023-05-10T12:38:32;4.30;;;1.80;;
47167;SDS011;32931;47.778;17.806;2023-05-10T12:41:00;6.35;;;1.75;;
47167;SDS011;32931;47.778;17.806;2023-05-10T12:43:28;3.42;;;1.30;;
47167;SDS011;32931;47.778;17.806;2023-05-10T12:45:55;6.65;;;1.33;;
47167;SDS011;32931;47.778;17.806;2023-05-10T12:48:22;11.07;;;1.70;;
47167;SDS011;32931;47.778;17.806;2023-05-10T12:50:48;4.47;;;1.70;;
47167;SDS011;32931;47.778;17.806;2023-05-10T12:53:14;3.45;;;1.58;;
47167;SDS011;32931;47.778;17.806;2023-05-10T12:55:41;3.40;;;1.80;;
47167;SDS011;32931;47.778;17.806;2023-05-10T12:58:10;2.45;;;1.30;;
47167;SDS011;32931;47.778;17.806;2023-05-10T13:00:36;3.05;;;1.20;;
47167;SDS011;32931;47.778;17.806;2023-05-10T13:03:04;6.90;;;1.30;;
47167;SDS011;32931;47.778;17.806;2023-05-10T13:05:33;6.78;;;1.48;;
47167;SDS011;32931;47.778;17.806;2023-05-10T13:07:59;6.78;;;1.33;;
47167;SDS011;32931;47.778;17.806;2023-05-10T13:10:26;6.43;;;1.50;;
47167;SDS011;32931;47.778;17.806;2023-05-10T13:12:52;5.00;;;1.58;;
47167;SDS011;32931;47.778;17.806;2023-05-10T13:15:18;5.28;;;1.50;;
47167;SDS011;32931;47.778;17.806;2023-05-10T13:17:44;6.20;;;1.42;;
47167;SDS011;32931;47.778;17.806;2023-05-10T13:20:10;11.13;;;1.95;;
47167;SDS011;32931;47.778;17.806;2023-05-10T13:22:37;4.15;;;1.70;;
47167;SDS011;32931;47.778;17.806;2023-05-10T13:25:03;9.25;;;1.50;;
47167;SDS011;32931;47.778;17.806;2023-05-10T13:27:29;6.20;;;1.60;;
47167;SDS011;32931;47.778;17.806;2023-05-10T13:29:55;3.83;;;1.40;;
47167;SDS011;32931;47.778;17.806;2023-05-10T13:32:22;7.65;;;1.58;;
47167;SDS011;32931;47.778;17.806;2023-05-10T13:34:48;4.43;;;1.70;;
47167;SDS011;32931;47.778;17.806;2023-05-10T13:37:14;3.20;;;1.50;;
47167;SDS011;32931;47.778;17.806;2023-05-10T13:39:40;3.97;;;1.60;;
47167;SDS011;32931;47.778;17.806;2023-05-10T13:42:06;6.57;;;1.20;;
47167;SDS011;32931;47.778;17.806;2023-05-10T13:44:32;5.25;;;1.83;;
47167;SDS011;32931;47.778;17.806;2023-05-10T13:46:59;7.40;;;1.30;;
47167;SDS011;32931;47.778;17.806;2023-05-10T13:49:25;4.20;;;1.65;;
47167;SDS011;32931;47.778;17.806;2023-05-10T13:51:52;6.80;;;1.60;;
47167;SDS011;32931;47.778;17.806;2023-05-10T13:54:18;3.00;;;1.50;;
47167;SDS011;32931;47.778;17.806;2023-05-10T13:56:45;7.05;;;1.50;;
47167;SDS011;32931;47.778;17.806;2023-05-10T13:59:12;7.50;;;1.70;;
47167;SDS011;32931;47.778;17.806;2023-05-10T14:01:40;6.85;;;1.40;;
47167;SDS011;32931;47.778;17.806;2023-05-10T14:04:06;6.97;;;1.50;;
47167;SDS011;32931;47.778;17.806;2023-05-10T14:06:38;4.22;;;1.60;;
47167;SDS011;32931;47.778;17.806;2023-05-10T14:09:04;4.25;;;1.27;;
47167;SDS011;32931;47.778;17.806;2023-05-10T14:11:30;3.10;;;1.20;;
47167;SDS011;32931;47.778;17.806;2023-05-10T14:13:56;3.45;;;1.20;;
47167;SDS011;32931;47.778;17.806;2023-05-10T14:16:22;5.55;;;1.20;;
47167;SDS011;32931;47.778;17.806;2023-05-10T14:18:49;2.88;;;1.30;;
47167;SDS011;32931;47.778;17.806;2023-05-10T14:21:15;5.70;;;1.55;;
47167;SDS011;32931;47.778;17.806;2023-05-10T14:23:41;12.38;;;1.50;;
47167;SDS011;32931;47.778;17.806;2023-05-10T14:26:07;2.95;;;1.52;;
47167;SDS011;32931;47.778;17.806;2023-05-10T14:28:34;8.43;;;1.50;;
47167;SDS011;32931;47.778;17.806;2023-05-10T14:31:00;4.05;;;1.50;;
47167;SDS011;32931;47.778;17.806;2023-05-10T14:33:26;5.10;;;1.50;;
47167;SDS011;32931;47.778;17.806;2023-05-10T14:35:53;6.85;;;1.25;;
47167;SDS011;32931;47.778;17.806;2023-05-10T14:38:21;2.90;;;1.20;;
47167;SDS011;32931;47.778;17.806;2023-05-10T14:40:48;4.93;;;1.40;;
47167;SDS011;32931;47.778;17.806;2023-05-10T14:43:15;2.85;;;1.38;;
47167;SDS011;32931;47.778;17.806;2023-05-10T14:45:41;7.75;;;1.52;;
47167;SDS011;32931;47.778;17.806;2023-05-10T14:48:07;2.97;;;1.25;;
47167;SDS011;32931;47.778;17.806;2023-05-10T14:50:36;5.45;;;1.30;;
47167;SDS011;32931;47.778;17.806;2023-05-10T14:53:02;3.53;;;1.05;;
47167;SDS011;32931;47.778;17.806;2023-05-10T14:55:29;2.20;;;1.08;;
47167;SDS011;32931;47.778;17.806;2023-05-10T14:57:55;6.45;;;1.40;;
47167;SDS011;32931;47.778;17.806;2023-05-10T15:00:21;5.05;;;1.20;;
47167;SDS011;32931;47.778;17.806;2023-05-10T15:02:48;4.18;;;1.20;;
47167;SDS011;32931;47.778;17.806;2023-05-10T15:05:14;9.65;;;1.52;;
47167;SDS011;32931;47.778;17.806;2023-05-10T15:07:40;6.80;;;1.30;;
47167;SDS011;32931;47.778;17.806;2023-05-10T15:10:09;5.25;;;1.20;;
47167;SDS011;32931;47.778;17.806;2023-05-10T15:12:36;4.72;;;1.23;;
47167;SDS011;32931;47.778;17.806;2023-05-10T15:15:03;8.68;;;1.50;;
47167;SDS011;32931;47.778;17.806;2023-05-10T15:17:30;7.30;;;1.27;;
47167;SDS011;32931;47.778;17.806;2023-05-10T15:19:57;6.20;;;0.90;;
47167;SDS011;32931;47.778;17.806;2023-05-10T15:22:23;3.05;;;1.20;;
47167;SDS011;32931;47.778;17.806;2023-05-10T15:24:49;6.68;;;1.40;;
47167;SDS011;32931;47.778;17.806;2023-05-10T15:27:16;5.10;;;1.20;;
47167;SDS011;32931;47.778;17.806;2023-05-10T15:29:42;7.57;;;1.40;;